createdAt,value
2022-08-05T00:00:50.097Z,3.20
2022-08-05T00:01:48.808Z,3.20
2022-08-05T00:02:50.430Z,3.30
2022-08-05T00:03:44.907Z,3.50
2022-08-05T00:04:43.814Z,3.10
2022-08-05T00:06:05.647Z,3.70
2022-08-05T00:06:44.774Z,3.20
2022-08-05T00:08:01.084Z,3.20
2022-08-05T00:08:44.767Z,3.40
2022-08-05T00:09:44.001Z,3.50
2022-08-05T00:10:43.814Z,3.50
2022-08-05T00:11:49.622Z,3.50
2022-08-05T00:12:56.811Z,3.40
2022-08-05T00:13:44.715Z,3.20
2022-08-05T00:14:44.689Z,3.30
2022-08-05T00:15:55.978Z,3.30
2022-08-05T00:16:53.714Z,3.40
2022-08-05T00:17:44.738Z,3.50
2022-08-05T00:18:44.300Z,3.80
2022-08-05T00:19:44.142Z,3.40
2022-08-05T00:20:43.621Z,3.30
2022-08-05T00:21:44.623Z,3.60
2022-08-05T00:22:47.121Z,3.80
2022-08-05T00:23:53.400Z,3.80
2022-08-05T00:24:44.587Z,3.80
2022-08-05T00:25:46.107Z,3.50
2022-08-05T00:26:50.642Z,3.60
2022-08-05T00:27:44.539Z,3.80
2022-08-05T00:28:43.531Z,3.70
2022-08-05T00:29:43.545Z,3.30
2022-08-05T00:30:44.029Z,3.70
2022-08-05T00:32:10.470Z,3.40
2022-08-05T00:32:44.512Z,3.50
2022-08-05T00:34:56.128Z,3.40
2022-08-05T00:35:03.524Z,3.90
2022-08-05T00:35:47.989Z,3.90
2022-08-05T00:37:11.239Z,3.70
2022-08-05T00:37:53.349Z,3.80
2022-08-05T00:38:44.449Z,3.60
2022-08-05T00:39:44.392Z,4.00
2022-08-05T00:40:51.929Z,4.00
2022-08-05T00:41:46.864Z,3.50
2022-08-05T00:42:44.370Z,3.50
2022-08-05T00:43:49.530Z,3.20
2022-08-05T00:44:44.370Z,3.60
2022-08-05T00:45:43.845Z,3.50
2022-08-05T00:46:43.635Z,3.50
2022-08-05T00:47:56.906Z,3.70
2022-08-05T00:48:51.514Z,3.60
2022-08-05T00:49:44.725Z,3.80
2022-08-05T00:50:46.049Z,3.40
2022-08-05T00:51:51.238Z,3.10
2022-08-05T00:52:45.479Z,3.70
2022-08-05T00:54:01.375Z,3.70
2022-08-05T00:54:44.255Z,3.40
2022-08-05T00:55:43.853Z,3.30
2022-08-05T00:56:51.330Z,3.70
2022-08-05T00:57:55.684Z,3.20
2022-08-05T00:58:45.011Z,4.10
2022-08-05T00:59:44.673Z,3.50
2022-08-05T01:00:43.208Z,3.60
2022-08-05T01:01:48.777Z,3.40
2022-08-05T01:02:44.148Z,3.40
2022-08-05T01:03:43.207Z,3.50
2022-08-05T01:04:44.139Z,3.50
2022-08-05T01:05:44.114Z,3.30
2022-08-05T01:06:43.712Z,3.40
2022-08-05T01:08:40.619Z,3.70
2022-08-05T01:08:44.631Z,3.60
2022-08-05T01:09:43.081Z,3.60
2022-08-05T01:10:52.250Z,3.70
2022-08-05T01:11:44.046Z,3.50
2022-08-05T01:13:05.080Z,3.30
2022-08-05T01:13:59.119Z,3.40
2022-08-05T01:14:44.030Z,3.30
2022-08-05T01:15:47.879Z,3.60
2022-08-05T01:16:44.164Z,3.30
2022-08-05T01:17:43.981Z,3.70
2022-08-05T01:18:42.962Z,3.50
2022-08-05T01:19:57.219Z,3.60
2022-08-05T01:20:43.950Z,3.50
2022-08-05T01:21:42.936Z,3.40
2022-08-05T01:22:47.095Z,4.10
2022-08-05T01:23:42.917Z,3.70
2022-08-05T01:24:43.942Z,3.60
2022-08-05T01:25:42.892Z,3.50
2022-08-05T01:26:43.884Z,3.50
2022-08-05T01:27:50.693Z,3.80
2022-08-05T01:28:43.853Z,3.50
2022-08-05T01:29:43.090Z,3.50
2022-08-05T01:30:53.940Z,3.50
2022-08-05T01:31:44.850Z,3.90
2022-08-05T01:32:42.816Z,3.60
2022-08-05T01:33:42.813Z,3.40
2022-08-05T01:34:43.786Z,3.50
2022-08-05T01:35:51.722Z,3.50
2022-08-05T01:36:46.974Z,3.70
2022-08-05T01:37:44.395Z,3.80
2022-08-05T01:38:42.766Z,3.80
2022-08-05T01:39:47.575Z,3.70
2022-08-05T01:40:43.784Z,3.80
2022-08-05T01:41:44.486Z,3.40
2022-08-05T01:42:42.715Z,3.60
2022-08-05T01:43:42.684Z,4.00
2022-08-05T01:44:42.675Z,4.10
2022-08-05T01:45:43.294Z,3.90
2022-08-05T01:46:46.175Z,4.00
2022-08-05T01:47:43.430Z,4.00
2022-08-05T01:48:42.638Z,4.00
2022-08-05T01:50:00.494Z,3.60
2022-08-05T01:50:50.999Z,3.90
2022-08-05T01:51:43.589Z,3.60
2022-08-05T01:52:43.588Z,4.00
2022-08-05T01:53:57.303Z,3.70
2022-08-05T01:54:46.005Z,4.10
2022-08-05T01:55:42.550Z,3.80
2022-08-05T01:58:10.897Z,3.80
2022-08-05T01:58:12.972Z,3.80
2022-08-05T01:58:45.062Z,3.70
2022-08-05T01:59:42.512Z,3.70
2022-08-05T02:00:42.493Z,4.20
2022-08-05T02:01:42.568Z,3.80
2022-08-05T02:02:46.419Z,3.60
2022-08-05T02:03:43.459Z,3.70
2022-08-05T02:04:42.463Z,3.90
2022-08-05T02:05:42.466Z,3.90
2022-08-05T02:06:42.484Z,3.40
2022-08-05T02:07:42.427Z,3.80
2022-08-05T02:08:55.004Z,3.70
2022-08-05T02:09:43.390Z,4.20
2022-08-05T02:10:42.382Z,3.90
2022-08-05T02:11:42.504Z,3.50
2022-08-05T02:12:43.376Z,4.00
2022-08-05T02:13:53.529Z,3.90
2022-08-05T02:14:43.428Z,4.10
2022-08-05T02:15:42.325Z,3.50
2022-08-05T02:16:42.350Z,3.50
2022-08-05T02:18:31.137Z,4.10
2022-08-05T02:18:43.327Z,3.80
2022-08-05T02:19:47.623Z,3.70
2022-08-05T02:20:43.268Z,3.80
2022-08-05T02:21:43.340Z,3.50
2022-08-05T02:22:42.350Z,3.80
2022-08-05T02:23:42.238Z,3.50
2022-08-05T02:24:42.235Z,3.80
2022-08-05T02:25:50.059Z,3.80
2022-08-05T02:26:53.891Z,3.70
2022-08-05T02:27:59.035Z,3.90
2022-08-05T02:28:45.747Z,3.60
2022-08-05T02:29:58.810Z,3.80
2022-08-05T02:30:54.395Z,4.10
2022-08-05T02:31:43.157Z,3.70
2022-08-05T02:32:42.139Z,3.60
2022-08-05T02:33:42.134Z,3.30
2022-08-05T02:34:42.115Z,3.80
2022-08-05T02:35:49.972Z,3.90
2022-08-05T02:36:43.158Z,3.50
2022-08-05T02:37:42.073Z,3.50
2022-08-05T02:38:42.066Z,3.60
2022-08-05T02:39:42.095Z,3.70
2022-08-05T02:40:43.097Z,4.00
2022-08-05T02:41:57.583Z,3.60
2022-08-05T02:42:43.068Z,3.90
2022-08-05T02:44:02.429Z,4.20
2022-08-05T02:44:42.997Z,3.60
2022-08-05T02:45:52.411Z,3.80
2022-08-05T02:46:53.286Z,3.50
2022-08-05T02:48:06.839Z,3.80
2022-08-05T02:48:43.475Z,3.50
2022-08-05T02:49:41.939Z,3.40
2022-08-05T02:50:43.630Z,3.90
2022-08-05T02:52:01.131Z,3.40
2022-08-05T02:52:42.909Z,3.60
2022-08-05T02:53:41.901Z,3.40
2022-08-05T02:54:42.720Z,3.70
2022-08-05T02:55:54.571Z,3.50
2022-08-05T02:56:43.438Z,3.60
2022-08-05T02:58:12.113Z,3.60
2022-08-05T02:58:43.691Z,3.60
2022-08-05T02:59:47.766Z,3.60
2022-08-05T03:00:45.987Z,3.90
2022-08-05T03:01:41.912Z,3.60
2022-08-05T03:02:42.903Z,3.70
2022-08-05T03:04:02.709Z,3.80
2022-08-05T03:04:42.832Z,3.50
2022-08-05T03:06:54.658Z,3.30
2022-08-05T03:06:55.890Z,3.40
2022-08-05T03:08:07.066Z,3.40
2022-08-05T03:08:43.005Z,3.70
2022-08-05T03:09:49.882Z,3.80
2022-08-05T03:10:42.698Z,3.50
2022-08-05T03:11:56.620Z,3.40
2022-08-05T03:12:42.680Z,3.30
2022-08-05T03:13:51.879Z,3.60
2022-08-05T03:14:46.071Z,3.20
2022-08-05T03:15:42.652Z,3.30
2022-08-05T03:16:41.704Z,3.20
2022-08-05T03:17:44.756Z,4.00
2022-08-05T03:18:42.091Z,3.50
2022-08-05T03:19:41.951Z,3.40
2022-08-05T03:20:48.777Z,3.40
2022-08-05T03:21:49.522Z,3.10
2022-08-05T03:22:44.187Z,3.40
2022-08-05T03:23:42.561Z,3.30
2022-08-05T03:24:41.543Z,3.60
2022-08-05T03:26:04.598Z,3.90
2022-08-05T03:26:42.564Z,3.20
2022-08-05T03:28:00.062Z,3.30
2022-08-05T03:28:42.500Z,2.90
2022-08-05T03:29:45.424Z,3.40
2022-08-05T03:30:42.608Z,3.60
2022-08-05T03:31:57.242Z,3.40
2022-08-05T03:32:42.463Z,3.30
2022-08-05T03:33:50.963Z,3.10
2022-08-05T03:34:42.501Z,3.50
2022-08-05T03:35:42.426Z,3.30
2022-08-05T03:36:41.432Z,3.00
2022-08-05T03:37:46.153Z,3.30
2022-08-05T03:38:42.401Z,3.30
2022-08-05T03:39:57.648Z,3.50
2022-08-05T03:40:45.168Z,3.20
2022-08-05T03:41:45.445Z,3.50
2022-08-05T03:42:51.530Z,3.70
2022-08-05T03:44:08.498Z,3.20
2022-08-05T03:44:42.327Z,3.60
2022-08-05T03:45:57.290Z,3.80
2022-08-05T03:46:42.306Z,3.70
2022-08-05T03:47:41.883Z,3.20
2022-08-05T03:48:41.278Z,3.70
2022-08-05T03:49:51.475Z,3.60
2022-08-05T03:50:42.262Z,3.50
2022-08-05T03:52:49.414Z,3.30
2022-08-05T03:55:50.095Z,3.30
2022-08-05T03:55:52.517Z,3.30
2022-08-05T03:55:53.559Z,3.40
2022-08-05T03:56:04.181Z,3.20
2022-08-05T03:56:42.243Z,3.30
2022-08-05T03:57:42.380Z,3.40
2022-08-05T03:58:41.313Z,3.40
2022-08-05T03:59:46.814Z,3.40
2022-08-05T04:00:42.222Z,3.20
2022-08-05T04:01:41.196Z,3.20
2022-08-05T04:02:51.861Z,3.50
2022-08-05T04:03:42.092Z,3.60
2022-08-05T04:04:42.095Z,3.30
2022-08-05T04:05:41.087Z,3.30
2022-08-05T04:06:47.522Z,3.70
2022-08-05T04:07:57.491Z,3.10
2022-08-05T04:08:42.066Z,3.20
2022-08-05T04:09:53.275Z,3.40
2022-08-05T04:10:42.017Z,3.30
2022-08-05T04:11:50.523Z,3.30
2022-08-05T04:13:11.779Z,3.20
2022-08-05T04:14:11.752Z,3.20
2022-08-05T04:15:15.585Z,3.40
2022-08-05T04:16:11.730Z,3.30
2022-08-05T04:17:11.729Z,3.20
2022-08-05T04:18:22.472Z,3.10
2022-08-05T04:19:12.692Z,3.30
2022-08-05T04:20:11.686Z,3.30
2022-08-05T04:21:11.681Z,3.70
2022-08-05T04:22:12.365Z,3.60
2022-08-05T04:23:12.673Z,3.20
2022-08-05T04:24:19.575Z,3.50
2022-08-05T04:25:12.635Z,3.30
2022-08-05T04:26:11.654Z,3.60
2022-08-05T04:27:11.626Z,3.50
2022-08-05T04:28:12.940Z,3.40
2022-08-05T04:29:11.592Z,3.40
2022-08-05T04:30:11.586Z,3.40
2022-08-05T04:31:11.575Z,3.50
2022-08-05T04:32:11.586Z,3.50
2022-08-05T04:33:11.537Z,3.20
2022-08-05T04:34:31.151Z,3.50
2022-08-05T04:35:17.350Z,3.30
2022-08-05T04:36:38.454Z,3.40
2022-08-05T04:37:12.767Z,3.80
2022-08-05T04:38:11.491Z,3.40
2022-08-05T04:39:11.504Z,3.50
2022-08-05T04:40:11.468Z,3.50
2022-08-05T04:41:11.465Z,3.40
2022-08-05T04:42:11.451Z,3.50
2022-08-05T04:43:16.639Z,3.10
2022-08-05T04:44:12.428Z,3.40
2022-08-05T04:45:11.414Z,3.20
2022-08-05T04:46:12.400Z,3.40
2022-08-05T04:47:13.644Z,3.20
2022-08-05T04:48:18.580Z,3.10
2022-08-05T04:49:14.926Z,3.80
2022-08-05T04:50:11.834Z,3.40
2022-08-05T04:51:11.697Z,3.90
2022-08-05T04:52:11.356Z,3.40
2022-08-05T04:53:11.321Z,3.50
2022-08-05T04:54:12.127Z,3.40
2022-08-05T04:55:14.225Z,3.20
2022-08-05T04:56:33.838Z,3.70
2022-08-05T04:57:12.300Z,3.30
2022-08-05T04:58:12.447Z,3.50
2022-08-05T04:59:22.166Z,3.50
2022-08-05T05:00:12.237Z,3.30
2022-08-05T05:01:11.299Z,4.00
2022-08-05T05:02:36.680Z,3.20
2022-08-05T05:03:12.305Z,3.60
2022-08-05T05:04:12.210Z,4.20
2022-08-05T05:05:16.763Z,4.10
2022-08-05T05:06:39.323Z,4.00
2022-08-05T05:07:12.180Z,3.90
2022-08-05T05:08:14.450Z,3.50
2022-08-05T05:09:14.361Z,3.40
2022-08-05T05:10:12.132Z,3.10
2022-08-05T05:11:11.112Z,3.50
2022-08-05T05:12:11.614Z,3.70
2022-08-05T05:13:11.099Z,3.20
2022-08-05T05:14:16.180Z,3.30
2022-08-05T05:15:12.073Z,3.50
2022-08-05T05:16:12.059Z,3.40
2022-08-05T05:17:11.127Z,3.30
2022-08-05T05:18:11.037Z,3.20
2022-08-05T05:19:23.388Z,3.60
2022-08-05T05:20:12.008Z,3.40
2022-08-05T05:21:11.013Z,3.20
2022-08-05T05:22:23.888Z,3.50
2022-08-05T05:23:19.507Z,3.10
2022-08-05T05:24:11.968Z,3.10
2022-08-05T05:25:16.045Z,3.30
2022-08-05T05:26:11.981Z,3.40
2022-08-05T05:27:10.939Z,3.40
2022-08-05T05:28:10.956Z,3.30
2022-08-05T05:29:14.769Z,3.40
2022-08-05T05:30:28.802Z,3.30
2022-08-05T05:31:11.959Z,3.20
2022-08-05T05:32:12.529Z,3.50
2022-08-05T05:33:17.133Z,3.40
2022-08-05T05:34:11.853Z,3.50
2022-08-05T05:35:10.849Z,3.60
2022-08-05T05:36:11.839Z,3.80
2022-08-05T05:37:10.829Z,3.60
2022-08-05T05:38:13.420Z,3.50
2022-08-05T05:39:11.141Z,3.40
2022-08-05T05:40:10.797Z,3.30
2022-08-05T05:41:10.782Z,3.60
2022-08-05T05:42:10.771Z,3.40
2022-08-05T05:43:10.775Z,3.30
2022-08-05T05:44:35.895Z,3.50
2022-08-05T05:45:11.802Z,3.40
2022-08-05T05:46:17.709Z,3.30
2022-08-05T05:47:21.465Z,3.70
2022-08-05T05:48:11.715Z,3.20
2022-08-05T05:49:22.467Z,3.50
2022-08-05T05:50:11.673Z,3.60
2022-08-05T05:51:15.848Z,3.50
2022-08-05T05:52:20.214Z,3.60
2022-08-05T05:53:22.472Z,3.30
2022-08-05T05:54:11.723Z,3.60
2022-08-05T05:55:13.657Z,3.60
2022-08-05T05:56:10.600Z,3.70
2022-08-05T05:57:13.484Z,3.60
2022-08-05T05:58:10.595Z,3.60
2022-08-05T05:59:10.599Z,3.60
2022-08-05T06:00:10.560Z,3.80
2022-08-05T06:01:12.738Z,3.70
2022-08-05T06:02:10.541Z,4.20
2022-08-05T06:03:40.255Z,3.60
2022-08-05T06:04:12.652Z,3.60
2022-08-05T06:05:16.654Z,3.80
2022-08-05T06:06:11.501Z,3.20
2022-08-05T06:07:10.643Z,3.50
2022-08-05T06:08:10.502Z,3.20
2022-08-05T06:09:17.024Z,3.20
2022-08-05T06:10:11.445Z,3.50
2022-08-05T06:11:10.446Z,3.30
2022-08-05T06:12:10.484Z,3.40
2022-08-05T06:13:10.431Z,3.50
2022-08-05T06:14:10.405Z,3.70
2022-08-05T06:15:13.631Z,3.30
2022-08-05T06:16:29.541Z,3.50
2022-08-05T06:17:22.031Z,3.50
2022-08-05T06:18:11.378Z,3.30
2022-08-05T06:19:10.348Z,3.20
2022-08-05T06:20:21.305Z,3.20
2022-08-05T06:21:16.635Z,3.70
2022-08-05T06:22:11.321Z,3.00
2022-08-05T06:23:10.325Z,2.90
2022-08-05T06:24:12.454Z,3.40
2022-08-05T06:25:59.251Z,2.90
2022-08-05T06:26:13.765Z,3.00
2022-08-05T06:27:17.105Z,3.10
2022-08-05T06:28:21.093Z,3.10
2022-08-05T06:29:42.821Z,3.20
2022-08-05T06:30:11.224Z,3.20
2022-08-05T06:31:22.123Z,3.10
2022-08-05T06:32:25.254Z,2.80
2022-08-05T06:33:11.215Z,3.10
2022-08-05T06:34:11.181Z,2.90
2022-08-05T06:35:15.292Z,2.40
2022-08-05T06:36:11.257Z,3.00
2022-08-05T06:37:10.143Z,2.30
2022-08-05T06:38:11.893Z,2.80
2022-08-05T06:39:10.180Z,2.50
2022-08-05T06:40:10.106Z,2.70
2022-08-05T06:41:10.170Z,2.70
2022-08-05T06:42:10.091Z,2.60
2022-08-05T06:43:58.026Z,2.80
2022-08-05T06:44:11.104Z,2.50
2022-08-05T06:45:10.050Z,2.80
2022-08-05T06:46:11.054Z,2.70
2022-08-05T06:47:10.295Z,2.50
2022-08-05T06:48:47.060Z,2.80
2022-08-05T06:49:12.143Z,2.50
2022-08-05T06:50:10.002Z,2.60
2022-08-05T06:51:12.117Z,2.70
2022-08-05T06:52:36.863Z,2.80
2022-08-05T06:53:11.561Z,2.60
2022-08-05T06:54:18.052Z,2.30
2022-08-05T06:55:10.950Z,2.30
2022-08-05T06:56:26.048Z,2.20
2022-08-05T06:57:57.583Z,2.40
2022-08-05T06:58:20.274Z,2.40
2022-08-05T06:59:11.958Z,2.30
2022-08-05T07:00:09.977Z,2.40
2022-08-05T07:01:09.907Z,2.30
2022-08-05T07:02:09.929Z,2.70
2022-08-05T07:03:09.958Z,2.70
2022-08-05T07:04:09.973Z,2.10
2022-08-05T07:05:11.648Z,2.60
2022-08-05T07:06:15.063Z,2.30
2022-08-05T07:07:09.826Z,2.50
2022-08-05T07:08:10.986Z,2.20
2022-08-05T07:09:09.799Z,2.70
2022-08-05T07:10:09.836Z,2.40
2022-08-05T07:11:15.289Z,2.30
2022-08-05T07:12:10.751Z,2.20
2022-08-05T07:13:09.745Z,2.20
2022-08-05T07:14:15.783Z,2.60
2022-08-05T07:15:10.724Z,2.20
2022-08-05T07:16:12.079Z,2.00
2022-08-05T07:17:59.946Z,2.30
2022-08-05T07:18:14.674Z,2.30
2022-08-05T07:19:10.690Z,2.20
2022-08-05T07:20:33.085Z,2.40
2022-08-05T07:21:10.643Z,2.50
2022-08-05T07:22:09.636Z,2.90
2022-08-05T07:23:09.627Z,2.30
2022-08-05T07:24:11.410Z,2.20
2022-08-05T07:25:55.384Z,2.30
2022-08-05T07:26:10.601Z,2.00
2022-08-05T07:27:09.716Z,2.30
2022-08-05T07:28:11.790Z,2.50
2022-08-05T07:29:10.565Z,2.30
2022-08-05T07:30:25.574Z,2.40
2022-08-05T07:31:10.536Z,1.90
2022-08-05T07:32:09.536Z,2.20
2022-08-05T07:33:13.299Z,2.30
2022-08-05T07:34:10.507Z,2.00
2022-08-05T07:35:55.813Z,2.00
2022-08-05T07:36:21.192Z,2.40
2022-08-05T07:37:11.649Z,2.00
2022-08-05T07:38:12.275Z,2.20
2022-08-05T07:39:24.718Z,2.40
2022-08-05T07:40:32.342Z,2.40
2022-08-05T07:42:09.548Z,2.20
2022-08-05T07:42:13.779Z,2.10
2022-08-05T07:43:20.364Z,2.10
2022-08-05T07:44:14.323Z,2.30
2022-08-05T07:45:10.414Z,2.30
2022-08-05T07:46:23.470Z,2.20
2022-08-05T07:47:10.440Z,2.20
2022-08-05T07:48:09.369Z,2.20
2022-08-05T07:49:09.349Z,2.10
2022-08-05T07:50:09.363Z,2.20
2022-08-05T07:51:23.721Z,2.40
2022-08-05T07:52:10.309Z,2.70
2022-08-05T07:53:09.297Z,2.20
2022-08-05T07:54:09.687Z,2.30
2022-08-05T07:55:16.057Z,2.10
2022-08-05T07:57:00.413Z,2.00
2022-08-05T07:57:22.456Z,1.90
2022-08-05T07:58:17.781Z,2.10
2022-08-05T07:59:10.229Z,2.30
2022-08-05T08:00:11.450Z,2.20
2022-08-05T08:01:12.400Z,2.10
2022-08-05T08:02:15.395Z,2.10
2022-08-05T08:03:15.201Z,2.40
2022-08-05T08:04:10.168Z,2.60
2022-08-05T08:05:09.172Z,2.60
2022-08-05T08:06:09.176Z,2.30
2022-08-05T08:07:09.145Z,2.40
2022-08-05T08:08:12.261Z,2.90
2022-08-05T08:09:09.139Z,2.10
2022-08-05T08:10:09.112Z,2.60
2022-08-05T08:11:09.226Z,2.20
2022-08-05T08:12:27.467Z,2.40
2022-08-05T08:13:11.580Z,2.50
2022-08-05T08:14:09.110Z,2.80
2022-08-05T08:15:09.696Z,2.50
2022-08-05T08:16:35.347Z,2.20
2022-08-05T08:17:10.100Z,2.10
2022-08-05T08:18:14.084Z,2.50
2022-08-05T08:19:09.026Z,1.90
2022-08-05T08:20:43.057Z,2.10
2022-08-05T08:21:17.571Z,2.00
2022-08-05T08:22:09.975Z,2.30
2022-08-05T08:23:20.980Z,2.40
2022-08-05T08:24:13.797Z,2.10
2022-08-05T08:25:15.722Z,2.00
2022-08-05T08:26:09.980Z,1.90
2022-08-05T08:27:08.932Z,1.90
2022-08-05T08:28:18.354Z,1.70
2022-08-05T08:30:04.704Z,2.10
2022-08-05T08:30:29.744Z,2.00
2022-08-05T08:31:09.942Z,2.10
2022-08-05T08:32:10.806Z,2.30
2022-08-05T08:33:08.866Z,2.00
2022-08-05T08:34:09.838Z,2.00
2022-08-05T08:35:13.494Z,2.00
2022-08-05T08:36:38.176Z,1.90
2022-08-05T08:37:09.807Z,1.70
2022-08-05T08:38:11.712Z,2.30
2022-08-05T08:39:15.405Z,2.70
2022-08-05T08:40:09.785Z,2.30
2022-08-05T08:41:08.858Z,2.10
2022-08-05T08:42:15.220Z,1.80
2022-08-05T08:44:56.416Z,1.70
2022-08-05T08:45:19.669Z,1.90
2022-08-05T08:45:21.320Z,1.70
2022-08-05T08:46:10.015Z,1.90
2022-08-05T08:47:47.472Z,1.90
2022-08-05T08:48:22.697Z,2.00
2022-08-05T08:50:23.269Z,1.90
2022-08-05T08:50:31.952Z,1.70
2022-08-05T08:52:01.768Z,2.00
2022-08-05T08:52:13.722Z,2.30
2022-08-05T08:53:12.207Z,1.70
2022-08-05T08:54:08.616Z,2.00
2022-08-05T08:55:13.058Z,1.70
2022-08-05T08:56:08.610Z,1.90
2022-08-05T08:57:11.013Z,1.70
2022-08-05T08:58:08.762Z,2.20
2022-08-05T08:59:14.662Z,2.20
2022-08-05T09:00:09.552Z,2.30
2022-08-05T09:01:15.461Z,1.70
2022-08-05T09:02:09.608Z,2.00
2022-08-05T09:03:08.533Z,2.20
2022-08-05T09:04:10.623Z,2.00
2022-08-05T09:05:17.786Z,1.60
2022-08-05T09:06:11.529Z,1.90
2022-08-05T09:07:19.309Z,1.90
2022-08-05T09:08:09.713Z,2.00
2022-08-05T09:09:08.520Z,1.70
2022-08-05T09:10:08.457Z,1.90
2022-08-05T09:11:08.441Z,2.10
2022-08-05T09:12:20.104Z,2.00
2022-08-05T09:13:09.400Z,1.90
2022-08-05T09:14:54.258Z,2.00
2022-08-05T09:15:09.391Z,2.30
2022-08-05T09:16:08.379Z,2.20
2022-08-05T09:17:16.166Z,2.00
2022-08-05T09:18:09.457Z,2.00
2022-08-05T09:19:08.332Z,2.20
2022-08-05T09:20:08.625Z,2.30
2022-08-05T09:21:11.429Z,2.30
2022-08-05T09:22:22.971Z,1.90
2022-08-05T09:23:09.787Z,2.40
2022-08-05T09:24:10.269Z,2.00
2022-08-05T09:25:23.668Z,2.20
2022-08-05T09:26:09.424Z,2.60
2022-08-05T09:27:08.269Z,2.40
2022-08-05T09:28:08.236Z,2.10
2022-08-05T09:29:08.784Z,2.00
2022-08-05T09:30:08.222Z,2.20
2022-08-05T09:31:43.913Z,2.10
2022-08-05T09:32:46.221Z,2.10
2022-08-05T09:33:09.218Z,2.30
2022-08-05T09:34:09.879Z,2.20
2022-08-05T09:35:08.163Z,2.30
2022-08-05T09:36:16.512Z,1.90
2022-08-05T09:37:15.241Z,2.00
2022-08-05T09:38:17.444Z,2.20
2022-08-05T09:39:18.184Z,2.00
2022-08-05T09:40:09.168Z,2.00
2022-08-05T09:41:08.195Z,1.90
2022-08-05T09:42:08.427Z,2.10
2022-08-05T09:43:08.546Z,1.90
2022-08-05T09:44:08.108Z,2.00
2022-08-05T09:46:05.183Z,2.00
2022-08-05T09:46:09.129Z,2.00
2022-08-05T09:47:10.381Z,2.10
2022-08-05T09:48:08.031Z,2.30
2022-08-05T09:49:19.175Z,2.40
2022-08-05T09:50:09.006Z,2.10
2022-08-05T09:51:15.119Z,2.40
2022-08-05T09:52:09.020Z,1.80
2022-08-05T09:53:08.788Z,1.90
2022-08-05T09:54:07.948Z,2.40
2022-08-05T09:55:57.214Z,2.00
2022-08-05T09:56:13.167Z,1.90
2022-08-05T09:57:23.477Z,2.40
2022-08-05T09:58:08.909Z,2.50
2022-08-05T09:59:07.967Z,2.20
2022-08-05T10:00:07.911Z,2.70
2022-08-05T10:01:15.107Z,2.30
2022-08-05T10:02:08.866Z,2.50
2022-08-05T10:03:07.908Z,2.50
2022-08-05T10:04:10.088Z,3.00
2022-08-05T10:05:07.915Z,2.80
2022-08-05T10:06:14.850Z,3.40
2022-08-05T10:07:20.020Z,3.30
2022-08-05T10:08:11.142Z,2.80
2022-08-05T10:09:08.799Z,3.40
2022-08-05T10:10:15.714Z,2.00
2022-08-05T10:11:08.749Z,2.00
2022-08-05T10:12:18.483Z,2.40
2022-08-05T10:13:09.741Z,2.30
2022-08-05T10:14:07.825Z,1.80
2022-08-05T10:15:07.705Z,2.10
2022-08-05T10:16:07.699Z,1.80
2022-08-05T10:17:07.752Z,1.90
2022-08-05T10:18:08.679Z,2.00
2022-08-05T10:19:09.336Z,2.00
2022-08-05T10:20:10.070Z,2.20
2022-08-05T10:21:11.863Z,2.50
2022-08-05T10:22:09.012Z,1.70
2022-08-05T10:23:21.777Z,2.20
2022-08-05T10:24:10.757Z,2.00
2022-08-05T10:25:07.625Z,1.80
2022-08-05T10:26:07.582Z,2.20
2022-08-05T10:27:08.699Z,2.00
2022-08-05T10:28:13.841Z,2.00
2022-08-05T10:29:08.554Z,2.00
2022-08-05T10:31:20.728Z,2.10
2022-08-05T10:32:48.605Z,2.00
2022-08-05T10:32:54.722Z,2.10
2022-08-05T10:33:09.332Z,1.80
2022-08-05T10:34:08.549Z,2.10
2022-08-05T10:35:07.488Z,2.10
2022-08-05T10:36:07.500Z,1.80
2022-08-05T10:37:07.449Z,1.90
2022-08-05T10:38:08.351Z,1.90
2022-08-05T10:39:10.499Z,1.90
2022-08-05T10:40:18.246Z,1.70
2022-08-05T10:41:08.504Z,1.80
2022-08-05T10:42:07.398Z,1.90
2022-08-05T10:43:07.466Z,2.10
2022-08-05T10:44:08.400Z,2.20
2022-08-05T10:45:21.521Z,2.00
2022-08-05T10:46:08.381Z,2.10
2022-08-05T10:47:10.138Z,2.10
2022-08-05T10:48:31.038Z,2.20
2022-08-05T10:49:10.534Z,2.50
2022-08-05T10:50:33.259Z,2.60
2022-08-05T10:51:22.190Z,2.10
2022-08-05T10:52:10.237Z,2.30
2022-08-05T10:53:07.282Z,2.30
2022-08-05T10:54:28.530Z,2.30
2022-08-05T10:55:08.262Z,2.60
2022-08-05T10:56:21.066Z,2.90
2022-08-05T10:57:08.250Z,2.60
2022-08-05T10:58:07.224Z,2.70
2022-08-05T11:00:01.232Z,2.40
2022-08-05T11:00:13.355Z,2.70
2022-08-05T11:01:08.205Z,2.50
2022-08-05T11:02:07.302Z,2.40
2022-08-05T11:03:25.629Z,2.90
2022-08-05T11:04:08.240Z,2.40
2022-08-05T11:05:07.172Z,2.20
2022-08-05T11:06:08.595Z,2.30
2022-08-05T11:07:08.131Z,2.50
2022-08-05T11:08:27.512Z,2.60
2022-08-05T11:09:08.096Z,2.30
2022-08-05T11:10:09.869Z,2.20
2022-08-05T11:11:14.617Z,2.30
2022-08-05T11:12:08.074Z,2.00
2022-08-05T11:13:07.063Z,2.10
2022-08-05T11:14:07.053Z,1.80
2022-08-05T11:15:19.277Z,1.70
2022-08-05T11:16:08.041Z,1.80
2022-08-05T11:17:59.450Z,2.00
2022-08-05T11:18:11.619Z,1.70
2022-08-05T11:20:10.796Z,1.90
2022-08-05T11:20:16.826Z,1.90
2022-08-05T11:21:11.831Z,1.60
2022-08-05T11:22:06.990Z,2.10
2022-08-05T11:23:08.977Z,2.30
2022-08-05T11:24:14.757Z,2.10
2022-08-05T11:26:02.942Z,1.60
2022-08-05T11:26:09.163Z,1.60
2022-08-05T11:27:06.905Z,1.70
2022-08-05T11:28:06.967Z,1.70
2022-08-05T11:29:13.385Z,1.50
2022-08-05T11:30:07.911Z,1.70
2022-08-05T11:31:06.907Z,1.50
2022-08-05T11:32:06.860Z,1.80
2022-08-05T11:33:06.823Z,2.10
2022-08-05T11:34:08.092Z,1.70
2022-08-05T11:35:06.812Z,2.30
2022-08-05T11:36:07.978Z,2.10
2022-08-05T11:38:27.909Z,1.90
2022-08-05T11:38:27.961Z,1.80
2022-08-05T11:39:07.845Z,1.80
2022-08-05T11:40:06.759Z,1.60
2022-08-05T11:41:34.546Z,1.80
2022-08-05T11:42:07.722Z,1.80
2022-08-05T11:43:06.738Z,1.80
2022-08-05T11:44:08.314Z,1.70
2022-08-05T11:45:14.309Z,1.80
2022-08-05T11:46:16.045Z,2.30
2022-08-05T11:47:11.084Z,1.60
2022-08-05T11:48:07.760Z,1.80
2022-08-05T11:49:07.905Z,1.90
2022-08-05T11:50:06.634Z,1.90
2022-08-05T11:51:06.647Z,1.80
2022-08-05T11:52:11.149Z,1.80
2022-08-05T11:53:09.998Z,1.60
2022-08-05T11:54:06.621Z,2.20
2022-08-05T11:55:07.409Z,1.80
2022-08-05T11:56:06.610Z,1.70
2022-08-05T11:57:08.290Z,2.10
2022-08-05T11:58:10.862Z,1.90
2022-08-05T11:59:13.788Z,1.70
2022-08-05T12:00:07.538Z,1.90
2022-08-05T12:01:10.377Z,2.00
2022-08-05T12:02:06.578Z,2.10
2022-08-05T12:03:07.543Z,1.80
2022-08-05T12:04:06.477Z,1.90
2022-08-05T12:05:18.179Z,1.80
2022-08-05T12:06:10.252Z,1.90
2022-08-05T12:07:06.458Z,2.20
2022-08-05T12:08:09.560Z,2.20
2022-08-05T12:09:06.427Z,2.00
2022-08-05T12:10:09.662Z,2.00
2022-08-05T12:11:07.461Z,2.10
2022-08-05T12:12:06.390Z,2.10
2022-08-05T12:13:16.867Z,2.00
2022-08-05T12:14:07.565Z,2.30
2022-08-05T12:15:06.368Z,2.10
2022-08-05T12:16:14.634Z,2.10
2022-08-05T12:17:42.218Z,2.30
2022-08-05T12:18:10.697Z,2.20
2022-08-05T12:19:08.235Z,2.20
2022-08-05T12:20:26.025Z,1.80
2022-08-05T12:21:07.296Z,2.10
2022-08-05T12:22:09.385Z,2.30
2022-08-05T12:23:06.287Z,2.20
2022-08-05T12:24:07.297Z,2.20
2022-08-05T12:25:06.301Z,2.20
2022-08-05T12:26:06.456Z,2.00
2022-08-05T12:27:09.771Z,1.90
2022-08-05T12:28:07.219Z,2.10
2022-08-05T12:29:09.618Z,2.20
2022-08-05T12:30:07.189Z,2.10
2022-08-05T12:31:06.202Z,2.00
2022-08-05T12:32:07.403Z,2.20
2022-08-05T12:33:07.206Z,2.30
2022-08-05T12:34:07.252Z,1.80
2022-08-05T12:35:06.136Z,2.30
2022-08-05T12:36:07.891Z,1.90
2022-08-05T12:37:06.136Z,1.80
2022-08-05T12:38:06.130Z,1.90
2022-08-05T12:39:06.236Z,1.70
2022-08-05T12:40:10.804Z,2.10
2022-08-05T12:41:09.698Z,1.50
2022-08-05T12:42:08.463Z,1.70
2022-08-05T12:43:06.059Z,1.80
2022-08-05T12:44:06.047Z,2.20
2022-08-05T12:45:09.393Z,2.00
2022-08-05T12:46:06.030Z,2.00
2022-08-05T12:47:06.228Z,2.00
2022-08-05T12:48:27.034Z,2.10
2022-08-05T12:49:13.218Z,2.20
2022-08-05T12:50:07.324Z,2.00
2022-08-05T12:51:05.996Z,1.80
2022-08-05T12:52:12.422Z,2.00
2022-08-05T12:53:06.961Z,2.00
2022-08-05T12:54:14.888Z,2.10
2022-08-05T12:55:06.917Z,1.80
2022-08-05T12:56:05.980Z,2.10
2022-08-05T12:57:09.212Z,2.10
2022-08-05T12:58:38.958Z,1.90
2022-08-05T12:59:11.003Z,2.00
2022-08-05T13:02:00.938Z,1.60
2022-08-05T13:02:01.241Z,2.10
2022-08-05T13:02:07.107Z,1.90
2022-08-05T13:03:05.829Z,2.00
2022-08-05T13:04:07.568Z,1.90
2022-08-05T13:05:05.826Z,1.90
2022-08-05T13:06:06.050Z,2.10
2022-08-05T13:07:05.786Z,2.20
2022-08-05T13:08:08.653Z,2.20
2022-08-05T13:09:05.802Z,1.90
2022-08-05T13:10:05.770Z,2.00
2022-08-05T13:11:05.742Z,2.10
2022-08-05T13:12:05.736Z,2.10
2022-08-05T13:13:05.788Z,1.70
2022-08-05T13:14:07.685Z,2.10
2022-08-05T13:15:07.521Z,2.30
2022-08-05T13:16:05.793Z,1.60
2022-08-05T13:17:05.705Z,2.20
2022-08-05T13:18:05.665Z,2.20
2022-08-05T13:19:05.705Z,1.80